createdAt,value
2019-03-20T00:00:42.837Z,1.20
2019-03-20T00:03:13.331Z,2.80
2019-03-20T00:05:44.322Z,1.37
2019-03-20T00:08:15.262Z,2.10
2019-03-20T00:10:46.194Z,1.10
2019-03-20T00:13:16.453Z,2.40
2019-03-20T00:15:47.475Z,1.80
2019-03-20T00:18:18.413Z,1.63
2019-03-20T00:20:49.776Z,3.47
2019-03-20T00:23:20.542Z,4.10
2019-03-20T00:25:51.455Z,2.43
2019-03-20T00:28:21.599Z,1.67
2019-03-20T00:30:52.720Z,1.73
2019-03-20T00:33:22.954Z,2.13
2019-03-20T00:35:53.995Z,2.63
2019-03-20T00:38:25.147Z,1.87
2019-03-20T00:40:57.107Z,1.70
2019-03-20T00:43:28.223Z,1.70
2019-03-20T00:45:59.398Z,1.97
2019-03-20T00:48:29.733Z,2.10
2019-03-20T00:51:00.642Z,1.63
2019-03-20T00:53:31.554Z,1.80
2019-03-20T00:56:02.570Z,1.77
2019-03-20T00:58:33.306Z,2.87
2019-03-20T01:01:04.062Z,2.10
2019-03-20T01:03:34.374Z,2.77
2019-03-20T01:06:04.910Z,3.60
2019-03-20T01:08:35.784Z,2.10
2019-03-20T01:11:07.195Z,1.10
2019-03-20T01:13:38.070Z,1.13
2019-03-20T01:16:09.289Z,2.03
2019-03-20T01:18:40.018Z,2.57
2019-03-20T01:21:11.122Z,1.93
2019-03-20T01:23:42.694Z,2.30
2019-03-20T01:26:13.883Z,2.13
2019-03-20T01:28:44.217Z,1.57
2019-03-20T01:31:15.151Z,2.63
2019-03-20T01:33:45.614Z,2.40
2019-03-20T01:36:16.589Z,1.73
2019-03-20T01:38:47.372Z,1.00
2019-03-20T01:41:18.503Z,2.27
2019-03-20T01:43:49.644Z,1.07
2019-03-20T01:46:20.396Z,1.50
2019-03-20T01:48:51.544Z,2.20
2019-03-20T01:51:22.694Z,2.50
2019-03-20T01:53:53.816Z,1.83
2019-03-20T01:56:24.332Z,2.33
2019-03-20T01:58:54.911Z,1.63
2019-03-20T02:01:25.450Z,0.83
2019-03-20T02:03:55.776Z,3.13
2019-03-20T02:06:27.137Z,1.47
2019-03-20T02:08:58.281Z,1.27
2019-03-20T02:11:29.212Z,1.80
2019-03-20T02:13:59.268Z,1.60
2019-03-20T02:16:30.083Z,1.47
2019-03-20T02:19:01.226Z,2.07
2019-03-20T02:21:33.809Z,1.20
2019-03-20T02:24:04.130Z,2.30
2019-03-20T02:26:34.813Z,0.60
2019-03-20T02:29:06.428Z,1.20
2019-03-20T02:31:37.585Z,1.70
2019-03-20T02:34:07.710Z,1.03
2019-03-20T02:36:38.785Z,2.10
2019-03-20T02:39:09.591Z,2.80
2019-03-20T02:41:40.534Z,2.03
2019-03-20T02:44:11.689Z,1.20
2019-03-20T02:46:42.583Z,1.20
2019-03-20T02:49:12.955Z,3.10
2019-03-20T02:51:44.504Z,1.83
2019-03-20T02:54:15.670Z,2.37
2019-03-20T02:56:45.734Z,1.17
2019-03-20T02:59:17.738Z,1.40
2019-03-20T03:01:49.930Z,1.10
2019-03-20T03:04:20.657Z,2.40
2019-03-20T03:06:51.145Z,1.20
2019-03-20T03:09:22.145Z,3.87
2019-03-20T03:11:52.687Z,1.10
2019-03-20T03:14:22.814Z,0.80
2019-03-20T03:16:53.944Z,1.53
2019-03-20T03:19:26.785Z,2.50
2019-03-20T03:21:57.618Z,1.27
2019-03-20T03:24:28.402Z,1.43
2019-03-20T03:26:59.166Z,1.80
2019-03-20T03:29:30.503Z,1.73
2019-03-20T03:32:01.396Z,1.03
2019-03-20T03:34:31.493Z,1.00
2019-03-20T03:37:02.458Z,1.97
2019-03-20T03:39:33.264Z,2.00
2019-03-20T03:42:04.952Z,2.03
2019-03-20T03:44:35.806Z,2.50
2019-03-20T03:47:06.495Z,1.10
2019-03-20T03:49:37.448Z,1.60
2019-03-20T03:52:07.969Z,1.40
2019-03-20T03:54:38.702Z,1.13
2019-03-20T03:57:08.928Z,1.10
2019-03-20T03:59:40.187Z,0.90
2019-03-20T04:02:10.705Z,1.67
2019-03-20T04:04:40.835Z,1.00
2019-03-20T04:07:11.987Z,1.97
2019-03-20T04:09:42.898Z,1.43
2019-03-20T04:12:13.491Z,1.73
2019-03-20T04:14:43.986Z,1.73
2019-03-20T04:17:28.805Z,0.60
2019-03-20T04:19:59.801Z,1.00
2019-03-20T04:22:30.960Z,1.80
2019-03-20T04:25:01.833Z,2.10
2019-03-20T04:27:33.059Z,1.80
2019-03-20T04:30:05.199Z,2.23
2019-03-20T04:32:35.343Z,2.20
2019-03-20T04:35:06.689Z,3.07
2019-03-20T04:37:37.842Z,2.07
2019-03-20T04:40:08.996Z,3.77
2019-03-20T04:42:39.244Z,1.53
2019-03-20T04:45:12.532Z,1.23
2019-03-20T04:47:42.868Z,2.40
2019-03-20T04:50:13.994Z,1.40
2019-03-20T04:52:44.050Z,2.07
2019-03-20T04:55:15.468Z,1.57
2019-03-20T04:57:46.824Z,1.47
2019-03-20T05:00:18.200Z,2.30
2019-03-20T05:02:48.911Z,1.03
2019-03-20T05:05:20.063Z,0.80
2019-03-20T05:07:50.841Z,1.63
2019-03-20T05:10:21.257Z,1.90
2019-03-20T05:12:51.806Z,1.90
2019-03-20T05:15:22.603Z,2.43
2019-03-20T05:17:53.541Z,1.23
2019-03-20T05:20:24.278Z,0.80
2019-03-20T05:22:54.556Z,1.10
2019-03-20T05:25:25.148Z,2.10
2019-03-20T05:27:56.085Z,1.97
2019-03-20T05:30:27.226Z,1.20
2019-03-20T05:32:57.237Z,0.87
2019-03-20T05:35:28.509Z,0.67
2019-03-20T05:37:58.979Z,0.80
2019-03-20T05:40:31.403Z,2.63
2019-03-20T05:43:02.157Z,1.43
2019-03-20T05:45:32.279Z,0.90
2019-03-20T05:48:02.759Z,2.17
2019-03-20T05:50:33.959Z,1.47
2019-03-20T05:53:04.511Z,0.97
2019-03-20T05:55:36.664Z,2.83
2019-03-20T05:58:07.155Z,2.00
2019-03-20T06:00:37.735Z,1.07
2019-03-20T06:03:08.887Z,1.27
2019-03-20T06:05:40.026Z,1.10
2019-03-20T06:08:10.969Z,0.90
2019-03-20T06:10:41.037Z,2.40
2019-03-20T06:13:11.831Z,2.10
2019-03-20T06:15:42.582Z,1.77
2019-03-20T06:18:13.059Z,1.37
2019-03-20T06:20:45.086Z,1.10
2019-03-20T06:23:15.753Z,1.53
2019-03-20T06:25:46.539Z,1.23
2019-03-20T06:28:17.445Z,1.30
2019-03-20T06:30:47.958Z,1.40
2019-03-20T06:33:19.382Z,0.97
2019-03-20T06:35:50.861Z,2.23
2019-03-20T06:38:21.209Z,1.40
2019-03-20T06:41:01.918Z,2.60
2019-03-20T06:43:40.793Z,2.60
2019-03-20T06:46:11.621Z,3.10
2019-03-20T06:48:42.185Z,2.13
2019-03-20T06:51:12.922Z,1.87
2019-03-20T06:53:43.164Z,2.87
2019-03-20T06:56:14.451Z,1.10
2019-03-20T06:58:45.155Z,2.17
2019-03-20T07:01:25.341Z,2.70
2019-03-20T07:04:12.753Z,1.87
2019-03-20T07:07:15.408Z,2.23
2019-03-20T07:10:13.879Z,2.00
2019-03-20T07:12:45.083Z,2.53
2019-03-20T07:15:16.004Z,1.20
2019-03-20T07:17:46.381Z,1.70
2019-03-20T07:20:17.321Z,2.03
2019-03-20T07:22:48.269Z,3.40
2019-03-20T07:25:19.202Z,3.03
2019-03-20T07:27:49.737Z,2.03
2019-03-20T07:30:19.823Z,2.43
2019-03-20T07:32:50.338Z,1.77
2019-03-20T07:35:20.474Z,2.53
2019-03-20T07:37:55.867Z,2.80
2019-03-20T07:40:23.835Z,2.20
2019-03-20T07:42:55.190Z,2.93
2019-03-20T07:45:27.370Z,3.27
2019-03-20T07:47:58.311Z,2.97
2019-03-20T07:50:36.877Z,3.83
2019-03-20T07:53:07.919Z,3.07
2019-03-20T07:55:38.254Z,3.83
2019-03-20T07:58:09.870Z,3.80
2019-03-20T08:00:41.014Z,3.10
2019-03-20T08:03:11.815Z,4.23
2019-03-20T08:05:42.919Z,3.10
2019-03-20T08:08:13.845Z,2.30
2019-03-20T08:10:44.994Z,2.90
2019-03-20T08:13:16.344Z,3.03
2019-03-20T08:15:47.248Z,2.50
2019-03-20T08:18:17.610Z,3.93
2019-03-20T08:20:48.557Z,3.30
2019-03-20T08:23:20.250Z,2.60
2019-03-20T08:25:51.079Z,4.27
2019-03-20T08:28:22.210Z,2.60
2019-03-20T08:30:52.698Z,2.93
2019-03-20T08:33:23.900Z,2.30
2019-03-20T08:35:55.242Z,3.27
2019-03-20T08:38:25.994Z,4.00
2019-03-20T08:40:56.844Z,3.37
2019-03-20T08:43:28.080Z,3.70
2019-03-20T08:45:58.612Z,2.47
2019-03-20T08:48:28.740Z,3.27
2019-03-20T08:50:59.854Z,3.03
2019-03-20T08:53:30.624Z,2.87
2019-03-20T08:56:01.452Z,4.13
2019-03-20T08:58:32.710Z,3.77
2019-03-20T09:01:03.062Z,4.27
2019-03-20T09:03:33.696Z,2.20
2019-03-20T09:06:04.728Z,3.43
2019-03-20T09:08:35.179Z,3.27
2019-03-20T09:11:05.991Z,3.83
2019-03-20T09:13:36.792Z,2.90
2019-03-20T09:16:07.488Z,2.87
2019-03-20T09:18:38.189Z,2.77
2019-03-20T09:21:08.744Z,2.93
2019-03-20T09:23:40.815Z,3.30
2019-03-20T09:26:11.591Z,2.40
2019-03-20T09:28:42.798Z,3.20
2019-03-20T09:31:14.157Z,3.23
2019-03-20T09:33:44.283Z,2.70
2019-03-20T09:36:15.885Z,3.60
2019-03-20T09:38:46.089Z,3.00
2019-03-20T09:41:17.313Z,2.67
2019-03-20T09:43:48.186Z,2.93
2019-03-20T09:46:18.824Z,2.30
2019-03-20T09:48:48.903Z,3.40
2019-03-20T09:51:20.270Z,2.60
2019-03-20T09:53:50.579Z,3.27
2019-03-20T09:56:21.740Z,3.23
2019-03-20T09:58:52.073Z,3.33
2019-03-20T10:01:22.605Z,2.90
2019-03-20T10:03:53.135Z,2.70
2019-03-20T10:06:24.081Z,3.37
2019-03-20T10:08:55.015Z,2.40
2019-03-20T10:11:25.764Z,2.27
2019-03-20T10:13:56.708Z,3.03
2019-03-20T10:16:27.324Z,2.13
2019-03-20T10:18:58.463Z,2.20
2019-03-20T10:21:29.949Z,3.70
2019-03-20T10:24:00.327Z,2.47
2019-03-20T10:26:31.013Z,2.60
2019-03-20T10:29:01.613Z,2.53
2019-03-20T10:31:32.895Z,2.40
2019-03-20T10:34:03.645Z,1.93
2019-03-20T10:36:34.627Z,2.40
2019-03-20T10:39:08.809Z,3.10
2019-03-20T10:41:38.721Z,1.10
2019-03-20T10:44:09.199Z,2.03
2019-03-20T10:46:40.403Z,2.00
2019-03-20T10:49:10.455Z,2.43
2019-03-20T10:51:40.658Z,2.30
2019-03-20T10:54:12.005Z,1.70
2019-03-20T10:56:42.949Z,2.40
2019-03-20T10:59:13.694Z,2.47
2019-03-20T11:01:44.041Z,2.40
2019-03-20T11:04:14.737Z,3.43
2019-03-20T11:06:45.920Z,2.20
2019-03-20T11:09:18.468Z,1.70
2019-03-20T11:11:49.599Z,2.53
2019-03-20T11:14:20.380Z,2.47
2019-03-20T11:16:51.336Z,2.23
2019-03-20T11:19:22.682Z,2.40
2019-03-20T11:21:53.608Z,1.93
2019-03-20T11:24:24.421Z,2.47
2019-03-20T11:26:58.622Z,2.80
2019-03-20T11:29:29.379Z,3.03
2019-03-20T11:32:00.044Z,2.83
2019-03-20T11:34:30.382Z,3.47
2019-03-20T11:37:01.110Z,2.87
2019-03-20T11:39:31.392Z,2.37
2019-03-20T11:42:02.167Z,4.17
2019-03-20T11:44:32.715Z,3.20
2019-03-20T11:47:03.446Z,2.60
2019-03-20T11:49:34.196Z,3.50
2019-03-20T11:52:06.433Z,4.00
2019-03-20T11:54:36.996Z,3.30
2019-03-20T11:57:10.296Z,3.50
2019-03-20T11:59:40.715Z,3.30
2019-03-20T12:02:11.774Z,2.50
2019-03-20T12:04:42.441Z,4.07
2019-03-20T12:07:13.442Z,4.07
2019-03-20T12:09:44.814Z,4.03
2019-03-20T12:12:15.746Z,3.30
2019-03-20T12:14:46.296Z,2.93
2019-03-20T12:17:16.846Z,3.70
2019-03-20T12:19:46.873Z,3.37
2019-03-20T12:22:17.478Z,3.60
2019-03-20T12:24:48.343Z,4.13
2019-03-20T12:27:19.314Z,4.00
2019-03-20T12:29:50.358Z,3.70
2019-03-20T12:32:21.196Z,4.27
2019-03-20T12:34:51.609Z,5.20
2019-03-20T12:37:22.518Z,4.07
2019-03-20T12:39:53.633Z,3.50
2019-03-20T12:42:24.816Z,4.30
2019-03-20T12:44:55.620Z,4.97
2019-03-20T12:47:26.502Z,3.77
2019-03-20T12:49:58.914Z,3.93
2019-03-20T12:52:29.560Z,3.70
2019-03-20T12:54:59.871Z,4.53
2019-03-20T12:57:30.888Z,3.47
2019-03-20T13:00:02.009Z,4.37
2019-03-20T13:02:34.405Z,4.83
2019-03-20T13:05:05.375Z,3.83
2019-03-20T13:07:36.012Z,4.40
2019-03-20T13:10:07.784Z,4.23
2019-03-20T13:12:38.375Z,3.27
2019-03-20T13:15:10.677Z,3.87
2019-03-20T13:17:40.889Z,3.67
2019-03-20T13:20:11.537Z,4.10
2019-03-20T13:22:42.971Z,4.77
2019-03-20T13:25:14.095Z,4.70
2019-03-20T13:27:44.284Z,4.03
2019-03-20T13:30:20.321Z,4.27
2019-03-20T13:32:50.177Z,3.83
2019-03-20T13:35:20.978Z,5.00
2019-03-20T13:37:51.722Z,5.00
2019-03-20T13:40:22.179Z,4.83
2019-03-20T13:42:53.193Z,4.20
2019-03-20T13:45:24.287Z,4.63
2019-03-20T13:47:54.825Z,4.00
2019-03-20T13:50:39.209Z,4.53
2019-03-20T13:53:00.447Z,4.87
2019-03-20T13:55:31.402Z,4.37
2019-03-20T13:58:01.866Z,3.63
2019-03-20T14:00:33.028Z,5.00
2019-03-20T14:03:03.815Z,5.97
2019-03-20T14:05:34.179Z,5.17
2019-03-20T14:08:05.868Z,4.97
2019-03-20T14:10:49.387Z,6.07
2019-03-20T14:13:08.959Z,4.90
2019-03-20T14:15:39.099Z,5.17
2019-03-20T14:18:09.687Z,5.53
2019-03-20T14:20:40.147Z,5.80
2019-03-20T14:23:11.148Z,4.97
2019-03-20T14:25:41.123Z,3.73
2019-03-20T14:28:12.618Z,3.30
2019-03-20T14:30:43.767Z,3.13
2019-03-20T14:33:14.533Z,2.77
2019-03-20T14:35:45.086Z,2.53
2019-03-20T14:38:15.785Z,2.80
2019-03-20T14:40:46.255Z,3.10
2019-03-20T14:43:17.040Z,3.53
2019-03-20T14:45:47.862Z,5.00
2019-03-20T14:48:18.491Z,4.70
2019-03-20T14:50:49.272Z,5.13
2019-03-20T14:53:19.487Z,4.87
2019-03-20T14:55:50.337Z,3.50
2019-03-20T14:58:20.401Z,2.77
2019-03-20T15:00:50.528Z,4.50
2019-03-20T15:03:22.547Z,4.07
2019-03-20T15:05:53.024Z,4.50
2019-03-20T15:08:24.032Z,3.60
2019-03-20T15:10:54.975Z,5.03
2019-03-20T15:13:27.123Z,5.43
2019-03-20T15:16:01.812Z,4.50
2019-03-20T15:18:33.135Z,4.50
2019-03-20T15:21:03.874Z,3.80
2019-03-20T15:23:34.524Z,3.70
2019-03-20T15:26:06.574Z,3.10
2019-03-20T15:28:37.730Z,3.17
2019-03-20T15:31:08.398Z,2.60
2019-03-20T15:33:38.721Z,3.57
2019-03-20T15:36:10.496Z,2.20
2019-03-20T15:38:42.121Z,2.70
2019-03-20T15:41:13.971Z,2.57
2019-03-20T15:43:46.668Z,2.27
2019-03-20T15:46:17.398Z,2.93
2019-03-20T15:48:48.757Z,3.10
2019-03-20T15:51:19.904Z,2.40
2019-03-20T15:53:50.506Z,2.90
2019-03-20T15:56:21.385Z,2.10
2019-03-20T15:58:52.736Z,3.20
2019-03-20T16:01:23.468Z,3.00
2019-03-20T16:03:54.198Z,3.17
2019-03-20T16:06:25.354Z,2.63
2019-03-20T16:08:56.967Z,2.03
2019-03-20T16:11:27.862Z,3.47
2019-03-20T16:13:58.546Z,2.10
2019-03-20T16:16:30.563Z,2.00
2019-03-20T16:19:01.451Z,2.83
2019-03-20T16:21:31.789Z,2.20
2019-03-20T16:24:02.926Z,3.10
2019-03-20T16:26:33.328Z,2.73
2019-03-20T16:29:04.043Z,2.30
2019-03-20T16:31:36.976Z,2.90
2019-03-20T16:34:07.734Z,2.43
2019-03-20T16:36:38.379Z,3.50
2019-03-20T16:39:09.254Z,3.70
2019-03-20T16:41:40.146Z,1.90
2019-03-20T16:44:11.555Z,1.87
2019-03-20T16:46:42.406Z,2.67
2019-03-20T16:49:15.484Z,2.40
2019-03-20T16:51:46.233Z,1.77
2019-03-20T16:54:16.306Z,2.10
2019-03-20T16:56:46.911Z,3.10
2019-03-20T16:59:18.233Z,1.97
2019-03-20T17:01:48.770Z,1.80
2019-03-20T17:04:20.325Z,2.73
2019-03-20T17:06:52.229Z,1.57
2019-03-20T17:09:23.115Z,2.77
2019-03-20T17:11:53.887Z,2.60
2019-03-20T17:14:24.445Z,2.40
2019-03-20T17:16:55.399Z,2.80
2019-03-20T17:19:26.181Z,2.30
2019-03-20T17:21:57.211Z,2.40
2019-03-20T17:24:27.777Z,1.83
2019-03-20T17:26:58.754Z,2.37
2019-03-20T17:29:29.381Z,2.13
2019-03-20T17:32:00.480Z,1.80
2019-03-20T17:34:30.993Z,2.80
2019-03-20T17:37:01.775Z,2.73
2019-03-20T17:39:32.917Z,3.07
2019-03-20T17:42:03.249Z,2.53
2019-03-20T17:44:34.197Z,2.93
2019-03-20T17:47:04.934Z,3.37
2019-03-20T17:49:36.162Z,1.70
2019-03-20T17:52:06.931Z,2.53
2019-03-20T17:54:36.944Z,2.60
2019-03-20T17:57:07.479Z,4.20
2019-03-20T17:59:38.907Z,4.10
2019-03-20T18:02:09.840Z,4.27
2019-03-20T18:04:40.154Z,3.83
2019-03-20T18:07:10.847Z,4.20
2019-03-20T18:09:41.924Z,2.70
2019-03-20T18:12:12.152Z,2.30
2019-03-20T18:14:42.855Z,3.00
2019-03-20T18:17:13.665Z,3.93
2019-03-20T18:19:43.595Z,2.57
2019-03-20T18:22:14.196Z,2.73
2019-03-20T18:24:45.151Z,1.97
2019-03-20T18:27:15.943Z,4.10
2019-03-20T18:29:46.679Z,2.60
2019-03-20T18:32:17.803Z,4.40
2019-03-20T18:34:49.174Z,11.10
2019-03-20T18:37:19.322Z,5.83
2019-03-20T18:39:50.080Z,4.33
2019-03-20T18:42:20.368Z,5.83
2019-03-20T18:44:51.538Z,4.57
2019-03-20T18:47:22.356Z,3.33
2019-03-20T18:49:53.398Z,3.87
2019-03-20T18:52:24.404Z,4.07
2019-03-20T18:54:54.612Z,3.47
2019-03-20T18:57:25.812Z,3.87
2019-03-20T18:59:56.560Z,4.07
2019-03-20T19:02:27.274Z,3.20
2019-03-20T19:04:58.104Z,4.70
2019-03-20T19:07:30.014Z,4.40
2019-03-20T19:10:00.388Z,4.53
2019-03-20T19:12:32.104Z,5.40
2019-03-20T19:15:03.037Z,4.00
2019-03-20T19:17:33.635Z,5.07
2019-03-20T19:20:05.692Z,2.73
2019-03-20T19:22:37.899Z,3.50
2019-03-20T19:25:09.266Z,5.20
2019-03-20T19:27:40.143Z,4.67
2019-03-20T19:30:15.330Z,3.50
2019-03-20T19:32:47.022Z,3.87
2019-03-20T19:35:18.160Z,4.17
2019-03-20T19:37:49.097Z,5.13
2019-03-20T19:40:20.458Z,6.67
2019-03-20T19:42:52.206Z,4.30
2019-03-20T19:45:23.181Z,4.13
2019-03-20T19:47:54.524Z,5.00
2019-03-20T19:50:29.972Z,6.80
2019-03-20T19:53:01.119Z,11.50
2019-03-20T19:55:31.637Z,9.33
2019-03-20T19:58:02.387Z,10.13
2019-03-20T20:00:32.873Z,5.23
2019-03-20T20:03:03.258Z,6.37
2019-03-20T20:05:33.988Z,7.00
2019-03-20T20:08:04.867Z,4.80
2019-03-20T20:10:35.886Z,8.60
2019-03-20T20:13:06.282Z,9.13
2019-03-20T20:15:36.911Z,8.70
2019-03-20T20:18:07.675Z,5.13
2019-03-20T20:20:38.616Z,5.27
2019-03-20T20:23:09.749Z,7.47
2019-03-20T20:25:40.868Z,6.00
2019-03-20T20:28:12.069Z,5.57
2019-03-20T20:30:42.798Z,5.83
2019-03-20T20:33:13.957Z,6.83
2019-03-20T20:35:44.488Z,4.70
2019-03-20T20:38:16.655Z,3.80
2019-03-20T20:40:47.606Z,4.80
2019-03-20T20:43:18.547Z,3.80
2019-03-20T20:45:49.487Z,6.10
2019-03-20T20:48:20.438Z,6.20
2019-03-20T20:50:51.517Z,6.73
2019-03-20T20:53:23.520Z,5.97
2019-03-20T20:55:54.291Z,8.13
2019-03-20T20:58:24.819Z,5.80
2019-03-20T21:00:55.569Z,4.43
2019-03-20T21:03:26.301Z,5.83
2019-03-20T21:05:57.031Z,3.10
2019-03-20T21:08:27.568Z,4.00
2019-03-20T21:10:58.517Z,3.57
2019-03-20T21:13:29.591Z,6.03
2019-03-20T21:16:03.062Z,3.60
2019-03-20T21:19:12.923Z,5.17
2019-03-20T21:22:20.562Z,6.30
2019-03-20T21:24:52.089Z,4.90
2019-03-20T21:28:00.506Z,4.63
2019-03-20T21:30:45.996Z,5.90
2019-03-20T21:33:50.928Z,4.43
2019-03-20T21:37:01.144Z,4.17
2019-03-20T21:39:32.707Z,5.77
2019-03-20T21:43:06.921Z,3.50
2019-03-20T21:45:45.717Z,4.90
2019-03-20T21:48:16.993Z,4.17
2019-03-20T21:51:22.418Z,4.40
2019-03-20T21:54:37.389Z,3.37
2019-03-20T21:57:45.194Z,3.40
2019-03-20T22:01:10.414Z,4.00
2019-03-20T22:03:43.771Z,4.50
2019-03-20T22:06:49.671Z,3.60
2019-03-20T22:09:58.623Z,4.70
2019-03-20T22:12:34.238Z,3.00
2019-03-20T22:15:28.298Z,3.93
2019-03-20T22:18:37.804Z,5.00
2019-03-20T22:21:19.600Z,4.60
2019-03-20T22:24:34.373Z,4.80
2019-03-20T22:27:41.514Z,3.00
2019-03-20T22:30:13.105Z,3.03
2019-03-20T22:33:23.180Z,3.93
2019-03-20T22:35:58.222Z,6.23
2019-03-20T22:39:01.324Z,3.33
2019-03-20T22:42:07.291Z,3.47
2019-03-20T22:44:44.178Z,3.07
2019-03-20T22:48:07.284Z,3.00
2019-03-20T22:50:51.544Z,2.40
2019-03-20T22:54:10.874Z,7.23
2019-03-20T22:57:18.320Z,3.33
2019-03-20T22:59:50.006Z,6.23
2019-03-20T23:02:33.061Z,4.77
2019-03-20T23:05:05.850Z,3.73
2019-03-20T23:07:37.206Z,3.10
2019-03-20T23:10:11.445Z,2.97
2019-03-20T23:12:42.364Z,4.47
2019-03-20T23:15:16.584Z,2.50
2019-03-20T23:17:48.154Z,3.73
2019-03-20T23:20:22.086Z,4.67
2019-03-20T23:22:53.096Z,4.07
2019-03-20T23:25:24.661Z,3.90
2019-03-20T23:27:56.894Z,5.93
2019-03-20T23:30:28.591Z,4.97
2019-03-20T23:33:00.360Z,5.27
2019-03-20T23:35:32.601Z,4.27
2019-03-20T23:38:03.547Z,3.30
2019-03-20T23:40:36.052Z,4.70
2019-03-20T23:43:07.758Z,2.33
2019-03-20T23:45:39.166Z,5.50
2019-03-20T23:48:14.872Z,4.07
2019-03-20T23:50:46.380Z,5.47
2019-03-20T23:53:17.476Z,3.43
2019-03-20T23:55:49.704Z,3.23
2019-03-20T23:58:21.256Z,4.93
